Terminal Aerodrome Forecast
Issued by NWS

Home | Current Version | Previous Version | Graphics & Text | Print | Product List | Glossary On
Versions: 1 2 3 4 5 6 7 8 9 10 11 12 13 14 15
316
FTUS43 KMPX 241120
TAFRWF
TAF
KRWF 241120Z 2412/2512 29015KT P6SM SCT070
     FM241500 30015G23KT P6SM VCSH OVC050
     FM242300 31015G23KT P6SM BKN050
     FM250200 31009KT P6SM SCT050 BKN100=

USA.gov is the U.S. government's official web portal to all federal, state and local government web resources and services.